createdAt,value
2023-01-19T00:00:52.539Z,6.00
2023-01-19T00:03:19.205Z,5.00
2023-01-19T00:05:46.101Z,9.00
2023-01-19T00:08:16.423Z,8.50
2023-01-19T00:10:45.263Z,5.00
2023-01-19T00:13:12.460Z,4.50
2023-01-19T00:15:39.406Z,3.50
2023-01-19T00:18:06.085Z,4.00
2023-01-19T00:20:32.929Z,3.00
2023-01-19T00:22:59.766Z,3.00
2023-01-19T00:25:26.707Z,2.00
2023-01-19T00:27:53.293Z,3.00
2023-01-19T00:30:19.895Z,3.00
2023-01-19T00:32:46.459Z,3.00
2023-01-19T00:35:13.106Z,4.00
2023-01-19T00:37:39.811Z,3.75
2023-01-19T00:40:07.297Z,3.00
2023-01-19T00:42:44.456Z,3.00
2023-01-19T00:45:20.087Z,3.00
2023-01-19T00:47:47.991Z,3.00
2023-01-19T00:50:16.960Z,3.75
2023-01-19T00:52:44.559Z,3.75
2023-01-19T00:55:13.699Z,3.50
2023-01-19T00:57:41.786Z,3.00
2023-01-19T01:00:11.825Z,3.00
2023-01-19T01:02:39.956Z,3.75
2023-01-19T01:05:07.219Z,3.00
2023-01-19T01:07:45.203Z,3.00
2023-01-19T01:10:24.338Z,5.00
2023-01-19T01:12:56.909Z,4.00
2023-01-19T01:15:27.357Z,2.50
2023-01-19T01:17:54.518Z,2.00
2023-01-19T01:20:27.077Z,3.00
2023-01-19T01:22:55.388Z,1.75
2023-01-19T01:25:24.655Z,2.00
2023-01-19T01:27:51.461Z,2.00
2023-01-19T01:30:19.291Z,2.00
2023-01-19T01:32:45.951Z,1.50
2023-01-19T01:35:12.975Z,1.00
2023-01-19T01:37:40.294Z,1.00
2023-01-19T01:40:07.807Z,1.00
2023-01-19T01:42:35.434Z,2.00
2023-01-19T01:45:07.598Z,1.00
2023-01-19T01:47:46.394Z,2.00
2023-01-19T01:50:23.339Z,1.75
2023-01-19T01:53:07.346Z,1.00
2023-01-19T01:55:39.978Z,2.00
2023-01-19T01:58:08.957Z,1.75
2023-01-19T02:00:54.882Z,2.00
2023-01-19T02:03:24.267Z,1.00
2023-01-19T02:05:52.003Z,2.25
2023-01-19T02:09:09.209Z,1.00
2023-01-19T02:11:54.958Z,3.00
2023-01-19T02:14:21.634Z,2.00
2023-01-19T02:16:48.414Z,2.00
2023-01-19T02:19:21.708Z,2.00
2023-01-19T02:22:07.207Z,2.00
2023-01-19T02:24:34.180Z,2.00
2023-01-19T02:27:01.164Z,2.00
2023-01-19T02:29:28.864Z,1.00
2023-01-19T02:31:56.371Z,1.00
2023-01-19T02:34:23.227Z,0.50
2023-01-19T02:37:07.154Z,1.00
2023-01-19T02:39:56.314Z,1.50
2023-01-19T02:42:30.706Z,0.75
2023-01-19T02:44:58.033Z,1.75
2023-01-19T02:47:24.750Z,0.00
2023-01-19T02:49:59.129Z,0.00
2023-01-19T02:52:27.254Z,1.00
2023-01-19T02:55:15.409Z,0.00
2023-01-19T02:57:57.163Z,0.00
2023-01-19T03:00:37.793Z,1.00
2023-01-19T03:03:19.614Z,1.00
2023-01-19T03:06:11.363Z,1.00
2023-01-19T03:09:00.594Z,0.25
2023-01-19T03:11:34.121Z,0.00
2023-01-19T03:14:12.671Z,0.00
2023-01-19T03:16:43.157Z,0.00
2023-01-19T03:19:13.760Z,0.00
2023-01-19T03:21:45.823Z,0.00
2023-01-19T03:24:15.547Z,0.00
2023-01-19T03:26:45.982Z,0.00
2023-01-19T03:29:15.101Z,0.00
2023-01-19T03:31:45.056Z,0.00
2023-01-19T03:34:14.438Z,0.00
2023-01-19T03:36:45.452Z,0.00
2023-01-19T03:39:16.769Z,0.00
2023-01-19T03:41:47.191Z,0.00
2023-01-19T03:44:13.949Z,0.50
2023-01-19T03:46:40.936Z,0.00
2023-01-19T03:49:08.434Z,0.00
2023-01-19T03:51:39.846Z,0.00
2023-01-19T03:54:07.535Z,0.00
2023-01-19T03:56:34.121Z,0.00
2023-01-19T03:59:00.868Z,0.00
2023-01-19T04:01:27.793Z,0.00
2023-01-19T04:03:54.671Z,0.00
2023-01-19T04:06:21.922Z,0.00
2023-01-19T04:08:52.064Z,0.00
2023-01-19T04:11:18.710Z,0.00
2023-01-19T04:13:45.281Z,0.25
2023-01-19T04:16:12.181Z,0.50
2023-01-19T04:18:38.755Z,0.00
2023-01-19T04:21:07.728Z,0.00
2023-01-19T04:23:34.831Z,0.00
2023-01-19T04:26:03.309Z,0.00
2023-01-19T04:28:30.665Z,0.00
2023-01-19T04:30:57.715Z,1.00
2023-01-19T04:33:24.771Z,0.00
2023-01-19T04:35:54.361Z,0.25
2023-01-19T04:38:21.424Z,0.00
2023-01-19T04:40:50.043Z,0.00
2023-01-19T04:43:17.428Z,0.25
2023-01-19T04:45:46.827Z,0.00
2023-01-19T04:48:14.508Z,0.50
2023-01-19T04:50:42.020Z,1.00
2023-01-19T04:53:08.927Z,0.00
2023-01-19T04:55:36.801Z,0.50
2023-01-19T04:58:03.532Z,0.00
2023-01-19T05:00:30.204Z,0.00
2023-01-19T05:02:56.859Z,0.00
2023-01-19T05:05:24.095Z,1.00
2023-01-19T05:07:50.645Z,1.00
2023-01-19T05:10:17.357Z,0.25
2023-01-19T05:12:43.978Z,0.00
2023-01-19T05:15:11.297Z,0.25
2023-01-19T05:17:38.077Z,0.00
2023-01-19T05:20:05.159Z,0.50
2023-01-19T05:22:32.063Z,0.50
2023-01-19T05:24:58.773Z,0.00
2023-01-19T05:27:25.382Z,0.75
2023-01-19T05:29:52.106Z,0.25
2023-01-19T05:32:18.735Z,0.00
2023-01-19T05:34:45.312Z,1.00
2023-01-19T05:37:12.024Z,1.00
2023-01-19T05:39:38.641Z,0.00
2023-01-19T05:42:05.411Z,1.75
2023-01-19T05:44:32.045Z,1.00
2023-01-19T05:46:58.741Z,2.00
2023-01-19T05:49:25.545Z,1.00
2023-01-19T05:51:52.098Z,1.00
2023-01-19T05:54:18.817Z,1.00
2023-01-19T05:56:45.680Z,0.25
2023-01-19T05:59:13.280Z,0.00
2023-01-19T06:01:40.448Z,0.00
2023-01-19T06:04:07.379Z,1.25
2023-01-19T06:06:34.005Z,0.75
2023-01-19T06:09:00.588Z,1.00
2023-01-19T06:11:27.238Z,0.00
2023-01-19T06:13:54.088Z,1.00
2023-01-19T06:16:20.681Z,0.00
2023-01-19T06:18:47.285Z,1.00
2023-01-19T06:21:14.430Z,2.00
2023-01-19T06:23:41.287Z,1.00
2023-01-19T06:26:07.954Z,2.00
2023-01-19T06:28:34.891Z,2.50
2023-01-19T06:31:01.985Z,1.75
2023-01-19T06:33:28.682Z,1.75
2023-01-19T06:35:56.065Z,2.00
2023-01-19T06:38:22.850Z,2.00
2023-01-19T06:40:54.732Z,2.00
2023-01-19T06:43:21.733Z,1.00
2023-01-19T06:45:48.827Z,2.50
2023-01-19T06:48:15.722Z,2.00
2023-01-19T06:50:45.209Z,2.00
2023-01-19T06:53:12.342Z,1.25
2023-01-19T06:55:39.283Z,1.00
2023-01-19T06:58:06.573Z,1.00
2023-01-19T07:00:33.250Z,2.00
2023-01-19T07:03:00.230Z,5.00
2023-01-19T07:05:27.376Z,7.00
2023-01-19T07:07:57.616Z,3.00
2023-01-19T07:10:25.101Z,3.75
2023-01-19T07:12:51.935Z,4.00
2023-01-19T07:15:20.180Z,3.00
2023-01-19T07:17:46.768Z,3.00
2023-01-19T07:20:14.455Z,3.25
2023-01-19T07:22:43.526Z,2.50
2023-01-19T07:25:10.454Z,3.00
2023-01-19T07:27:37.126Z,2.25
2023-01-19T07:30:04.792Z,2.00
2023-01-19T07:32:31.427Z,2.50
2023-01-19T07:34:58.163Z,4.00
2023-01-19T07:37:24.703Z,3.00
2023-01-19T07:39:51.366Z,4.00
2023-01-19T07:42:17.943Z,3.00
2023-01-19T07:44:44.492Z,3.00
2023-01-19T07:47:12.763Z,3.00
2023-01-19T07:49:39.851Z,2.00
2023-01-19T07:52:06.427Z,2.00
2023-01-19T07:54:33.678Z,2.25
2023-01-19T07:57:03.617Z,2.75
2023-01-19T07:59:31.118Z,1.00
2023-01-19T08:02:00.821Z,1.00
2023-01-19T08:04:30.933Z,1.00
2023-01-19T08:06:57.544Z,2.00
2023-01-19T08:09:24.476Z,2.00
2023-01-19T08:11:51.072Z,1.25
2023-01-19T08:14:18.213Z,2.00
2023-01-19T08:16:44.841Z,2.00
2023-01-19T08:19:11.753Z,3.00
2023-01-19T08:21:39.024Z,2.00
2023-01-19T08:24:06.071Z,2.00
2023-01-19T08:26:35.822Z,3.50
2023-01-19T08:29:05.530Z,3.00
2023-01-19T08:31:32.247Z,3.75
2023-01-19T08:33:59.002Z,3.00
2023-01-19T08:36:26.428Z,7.50
2023-01-19T08:38:53.405Z,4.00
2023-01-19T08:41:20.267Z,3.00
2023-01-19T08:43:46.955Z,2.50
2023-01-19T08:46:17.501Z,3.00
2023-01-19T08:48:45.258Z,2.00
2023-01-19T08:51:12.721Z,2.25
2023-01-19T08:53:39.328Z,3.00
2023-01-19T08:56:12.157Z,2.00
2023-01-19T08:58:40.101Z,2.50
2023-01-19T09:01:08.776Z,2.25
2023-01-19T09:03:36.235Z,4.00
2023-01-19T09:06:06.256Z,4.00
2023-01-19T09:08:33.224Z,4.75
2023-01-19T09:10:59.957Z,4.75
2023-01-19T09:13:26.576Z,0.00
2023-01-19T09:15:53.338Z,3.25
2023-01-19T09:18:21.747Z,2.75
2023-01-19T09:20:50.416Z,2.00
2023-01-19T09:23:19.754Z,2.00
2023-01-19T09:25:47.998Z,2.00
2023-01-19T09:28:16.303Z,2.25
2023-01-19T09:30:43.884Z,3.75
2023-01-19T09:33:13.288Z,3.75
2023-01-19T09:35:41.326Z,3.00
2023-01-19T09:38:09.314Z,2.00
2023-01-19T09:40:59.343Z,1.00
2023-01-19T09:43:40.615Z,1.75
2023-01-19T09:46:14.357Z,1.50
2023-01-19T09:48:44.133Z,3.00
2023-01-19T09:51:18.987Z,0.00
2023-01-19T09:54:08.159Z,2.00
2023-01-19T09:56:34.854Z,1.00
2023-01-19T09:59:03.226Z,5.75
2023-01-19T10:01:38.142Z,1.00
2023-01-19T10:04:32.945Z,3.00
2023-01-19T10:07:33.074Z,2.00
2023-01-19T10:10:22.977Z,1.00
2023-01-19T10:13:23.227Z,1.00
2023-01-19T10:16:01.601Z,1.00
2023-01-19T10:18:35.812Z,0.50
2023-01-19T10:21:10.588Z,1.00
2023-01-19T10:23:48.272Z,1.00
2023-01-19T10:26:18.490Z,0.00
2023-01-19T10:28:47.977Z,0.25
2023-01-19T10:31:18.571Z,0.50
2023-01-19T10:33:45.412Z,1.00
2023-01-19T10:36:28.986Z,1.00
2023-01-19T10:38:55.595Z,1.75
2023-01-19T10:41:30.641Z,0.00
2023-01-19T10:44:05.598Z,0.00
2023-01-19T10:46:42.302Z,0.25
2023-01-19T10:49:44.784Z,0.50
2023-01-19T10:52:32.424Z,2.00
2023-01-19T10:55:00.555Z,2.00
2023-01-19T10:57:38.348Z,0.00
2023-01-19T11:00:06.591Z,0.00
2023-01-19T11:02:33.548Z,0.50
2023-01-19T11:05:21.052Z,0.50
2023-01-19T11:07:47.636Z,0.75
2023-01-19T11:10:21.171Z,0.00
2023-01-19T11:12:55.108Z,0.00
2023-01-19T11:15:25.591Z,0.00
2023-01-19T11:17:53.658Z,0.00
2023-01-19T11:20:23.386Z,1.00
2023-01-19T11:23:06.274Z,1.00
2023-01-19T11:25:35.018Z,0.00
2023-01-19T11:28:03.315Z,1.00
2023-01-19T11:30:30.561Z,2.00
2023-01-19T11:32:57.321Z,4.00
2023-01-19T11:35:40.271Z,3.00
2023-01-19T11:38:13.422Z,1.00
2023-01-19T11:40:41.956Z,2.00
2023-01-19T11:43:13.619Z,2.00
2023-01-19T11:45:41.121Z,1.50
2023-01-19T11:48:19.750Z,1.75
2023-01-19T11:50:48.865Z,1.00
2023-01-19T11:53:28.213Z,1.00
2023-01-19T11:56:08.998Z,1.00
2023-01-19T11:58:41.193Z,2.00
2023-01-19T12:01:21.177Z,5.75
2023-01-19T12:03:54.701Z,5.50
2023-01-19T12:06:33.757Z,1.25
2023-01-19T12:09:26.566Z,2.50
2023-01-19T12:12:06.994Z,2.25
2023-01-19T12:15:07.937Z,1.75
2023-01-19T12:17:44.663Z,2.75
2023-01-19T12:20:23.680Z,1.00
2023-01-19T12:23:07.374Z,2.50
2023-01-19T12:25:45.768Z,1.50
2023-01-19T12:28:15.602Z,2.00
2023-01-19T12:30:42.493Z,2.00
2023-01-19T12:33:38.559Z,1.25
2023-01-19T12:36:17.338Z,2.25
2023-01-19T12:38:48.966Z,2.00
2023-01-19T12:41:27.514Z,1.00
2023-01-19T12:44:14.010Z,0.00
2023-01-19T12:46:46.956Z,0.75
2023-01-19T12:49:22.919Z,0.00
2023-01-19T12:51:52.107Z,0.50
2023-01-19T12:54:32.702Z,1.75
2023-01-19T12:57:04.861Z,1.25
2023-01-19T12:59:33.493Z,1.00
2023-01-19T13:02:18.521Z,0.00
2023-01-19T13:05:06.933Z,0.00
2023-01-19T13:08:07.906Z,1.00
2023-01-19T13:10:55.663Z,1.25
2023-01-19T13:13:25.102Z,1.75
2023-01-19T13:15:55.460Z,1.00
2023-01-19T13:18:23.527Z,2.00
2023-01-19T13:21:04.976Z,1.00
2023-01-19T13:23:52.481Z,1.00
2023-01-19T13:26:23.823Z,0.75
2023-01-19T13:28:53.961Z,1.00
2023-01-19T13:31:21.771Z,1.00
2023-01-19T13:33:57.236Z,1.25
2023-01-19T13:36:31.975Z,2.50
2023-01-19T13:39:03.407Z,1.25
2023-01-19T13:41:35.459Z,0.50
2023-01-19T13:44:07.795Z,2.25
2023-01-19T13:46:38.494Z,2.25
2023-01-19T13:49:26.273Z,3.00
2023-01-19T13:52:07.703Z,3.00
2023-01-19T13:54:34.273Z,2.00
2023-01-19T13:57:00.855Z,2.00
2023-01-19T13:59:27.451Z,1.25
2023-01-19T14:01:54.525Z,0.00
2023-01-19T14:04:29.937Z,1.00
2023-01-19T14:07:11.893Z,1.00
2023-01-19T14:09:39.631Z,1.00
2023-01-19T14:12:14.081Z,2.50
2023-01-19T14:14:42.849Z,3.00
2023-01-19T14:17:24.735Z,2.25
2023-01-19T14:19:54.234Z,3.00
2023-01-19T14:22:20.865Z,4.00
2023-01-19T14:24:47.456Z,3.00
2023-01-19T14:27:19.850Z,2.00
2023-01-19T14:29:48.400Z,2.75
2023-01-19T14:32:22.362Z,1.00
2023-01-19T14:34:51.156Z,1.00
2023-01-19T14:37:20.450Z,1.00
2023-01-19T14:39:51.275Z,2.00
2023-01-19T14:42:23.473Z,11.00
2023-01-19T14:44:52.962Z,0.75
2023-01-19T14:47:34.943Z,2.00
2023-01-19T14:50:41.495Z,3.25
2023-01-19T14:53:21.335Z,7.25
2023-01-19T14:55:52.421Z,4.00
2023-01-19T14:58:21.421Z,4.25
2023-01-19T15:00:49.363Z,4.50
2023-01-19T15:03:16.427Z,3.00
2023-01-19T15:05:45.768Z,2.50
2023-01-19T15:08:23.238Z,1.00
2023-01-19T15:10:49.831Z,0.50
2023-01-19T15:13:20.533Z,0.50
2023-01-19T15:15:47.173Z,2.00
2023-01-19T15:18:17.423Z,1.25
2023-01-19T15:20:44.142Z,1.00
2023-01-19T15:23:11.972Z,0.00
2023-01-19T15:25:42.284Z,1.00
2023-01-19T15:28:14.252Z,0.00
2023-01-19T15:30:40.974Z,0.00
2023-01-19T15:33:17.288Z,0.00
2023-01-19T15:35:43.828Z,1.00
2023-01-19T15:38:10.411Z,1.00
2023-01-19T15:40:37.219Z,1.00
2023-01-19T15:43:04.075Z,1.00
2023-01-19T15:45:48.017Z,2.00
2023-01-19T15:48:14.885Z,1.00
2023-01-19T15:50:44.171Z,2.75
2023-01-19T15:53:15.619Z,2.00
2023-01-19T15:55:42.590Z,1.00
2023-01-19T15:58:09.228Z,1.25
2023-01-19T16:00:36.606Z,1.00
2023-01-19T16:03:03.965Z,2.00
2023-01-19T16:05:42.470Z,1.00
2023-01-19T16:08:11.556Z,1.25
2023-01-19T16:10:38.534Z,0.00
2023-01-19T16:13:05.167Z,0.00
2023-01-19T16:15:34.799Z,1.75
2023-01-19T16:18:01.377Z,2.00
2023-01-19T16:20:27.997Z,1.75
2023-01-19T16:22:56.530Z,2.00
2023-01-19T16:25:25.150Z,3.00
2023-01-19T16:27:51.692Z,3.00
2023-01-19T16:30:19.447Z,1.75
2023-01-19T16:32:46.738Z,5.00
2023-01-19T16:35:15.563Z,4.00
2023-01-19T16:37:42.478Z,5.25
2023-01-19T16:40:09.859Z,4.00
2023-01-19T16:42:36.512Z,4.00
2023-01-19T16:45:03.460Z,4.00
2023-01-19T16:47:30.050Z,6.00
2023-01-19T16:49:56.588Z,5.00
2023-01-19T16:52:23.172Z,6.00
2023-01-19T16:54:50.043Z,6.00
2023-01-19T16:57:16.825Z,4.25
2023-01-19T16:59:45.165Z,6.75
2023-01-19T17:02:11.907Z,6.00
2023-01-19T17:04:38.592Z,7.00
2023-01-19T17:07:20.241Z,11.00
2023-01-19T17:09:46.882Z,10.00
2023-01-19T17:12:13.574Z,5.00
2023-01-19T17:14:40.258Z,6.00
2023-01-19T17:17:09.379Z,6.25
2023-01-19T17:19:36.181Z,8.75
2023-01-19T17:22:02.764Z,4.00
2023-01-19T17:24:29.406Z,1.00
2023-01-19T17:26:55.949Z,3.00
2023-01-19T17:29:22.512Z,0.00
2023-01-19T17:31:51.102Z,2.00
2023-01-19T17:34:17.678Z,2.75
2023-01-19T17:36:44.335Z,3.00
2023-01-19T17:39:14.950Z,3.50
2023-01-19T17:41:41.996Z,3.00
2023-01-19T17:44:10.385Z,2.25
2023-01-19T17:46:38.351Z,4.00
2023-01-19T17:49:08.059Z,4.25
2023-01-19T17:51:35.408Z,3.25
2023-01-19T17:54:02.634Z,1.00
2023-01-19T17:56:33.077Z,3.25
2023-01-19T17:58:59.794Z,6.00
2023-01-19T18:01:29.486Z,5.00
2023-01-19T18:03:57.210Z,8.00
2023-01-19T18:06:23.899Z,4.00
2023-01-19T18:08:50.879Z,4.50
2023-01-19T18:11:19.437Z,5.00
2023-01-19T18:13:48.352Z,7.75
2023-01-19T18:16:26.851Z,8.75
2023-01-19T18:18:54.902Z,6.00
2023-01-19T18:21:23.452Z,5.00
2023-01-19T18:23:50.890Z,4.25
2023-01-19T18:26:20.064Z,4.00
2023-01-19T18:28:48.101Z,3.50
2023-01-19T18:31:17.893Z,2.00
2023-01-19T18:33:44.578Z,5.00
2023-01-19T18:36:11.776Z,5.75
2023-01-19T18:38:39.271Z,5.50
2023-01-19T18:41:14.150Z,4.00
2023-01-19T18:43:40.978Z,3.00
2023-01-19T18:46:08.272Z,7.25
2023-01-19T18:48:35.315Z,5.00
2023-01-19T18:51:09.627Z,5.50
2023-01-19T18:53:36.483Z,9.00
2023-01-19T18:56:03.870Z,4.75
2023-01-19T18:58:31.827Z,6.00
2023-01-19T19:01:01.697Z,4.00
2023-01-19T19:03:29.435Z,3.00
2023-01-19T19:05:56.095Z,4.25
2023-01-19T19:08:22.849Z,3.00
2023-01-19T19:10:52.081Z,4.75
2023-01-19T19:13:21.817Z,6.00
2023-01-19T19:15:50.525Z,4.00
2023-01-19T19:18:17.105Z,4.00
2023-01-19T19:20:44.021Z,2.00
2023-01-19T19:23:11.614Z,1.00
2023-01-19T19:25:38.460Z,3.75
2023-01-19T19:28:05.409Z,4.75
2023-01-19T19:30:34.414Z,6.75
2023-01-19T19:33:01.148Z,7.00
2023-01-19T19:35:27.757Z,7.00
2023-01-19T19:37:57.580Z,7.75
2023-01-19T19:40:26.545Z,4.00
2023-01-19T19:42:53.394Z,3.00
2023-01-19T19:45:20.180Z,3.75
2023-01-19T19:47:46.838Z,3.25
2023-01-19T19:50:14.314Z,5.00
2023-01-19T19:52:42.144Z,3.00
2023-01-19T19:55:10.081Z,4.75
2023-01-19T19:57:36.927Z,1.75
2023-01-19T20:00:05.266Z,2.00
2023-01-19T20:02:32.278Z,2.25
2023-01-19T20:04:58.950Z,2.00
2023-01-19T20:07:25.625Z,2.00
2023-01-19T20:09:53.550Z,6.00
2023-01-19T20:12:20.194Z,5.50
2023-01-19T20:14:46.748Z,4.00
2023-01-19T20:17:13.319Z,6.00
2023-01-19T20:19:39.880Z,1.75
2023-01-19T20:22:07.124Z,4.00
2023-01-19T20:24:33.749Z,4.00
2023-01-19T20:27:00.301Z,6.75
2023-01-19T20:29:26.974Z,4.00
2023-01-19T20:31:55.539Z,8.00
2023-01-19T20:34:25.174Z,8.00
2023-01-19T20:36:53.886Z,7.50
2023-01-19T20:39:21.723Z,5.00
2023-01-19T20:41:50.897Z,4.00
2023-01-19T20:44:20.810Z,6.00
2023-01-19T20:46:48.396Z,5.00
2023-01-19T20:49:15.255Z,5.75
2023-01-19T20:51:45.121Z,12.00
2023-01-19T20:54:13.068Z,10.25
2023-01-19T20:56:41.290Z,6.50
2023-01-19T20:59:12.176Z,5.50
2023-01-19T21:01:39.931Z,9.25
2023-01-19T21:04:07.373Z,10.75
2023-01-19T21:06:35.159Z,13.50
2023-01-19T21:09:01.836Z,12.25
2023-01-19T21:11:28.614Z,14.75
2023-01-19T21:13:57.999Z,7.75
2023-01-19T21:16:30.486Z,12.00
2023-01-19T21:18:57.697Z,9.50
2023-01-19T21:21:30.706Z,9.00
2023-01-19T21:23:59.516Z,8.25
2023-01-19T21:26:26.218Z,6.50
2023-01-19T21:28:52.869Z,5.25
2023-01-19T21:31:22.630Z,7.00
2023-01-19T21:33:53.433Z,9.50
2023-01-19T21:36:21.534Z,4.50
2023-01-19T21:38:48.377Z,3.00
2023-01-19T21:41:16.371Z,7.50
2023-01-19T21:43:43.465Z,5.50
2023-01-19T21:46:16.640Z,4.00
2023-01-19T21:48:43.400Z,3.00
2023-01-19T21:51:10.295Z,3.75
2023-01-19T21:53:37.088Z,3.00
2023-01-19T21:56:06.776Z,2.50
2023-01-19T21:58:33.717Z,3.00
2023-01-19T22:01:05.334Z,3.00
2023-01-19T22:03:32.055Z,3.25
2023-01-19T22:06:06.860Z,2.75
2023-01-19T22:08:34.214Z,3.50
2023-01-19T22:11:08.368Z,3.00
2023-01-19T22:13:36.178Z,3.00
2023-01-19T22:16:04.143Z,2.00
2023-01-19T22:18:30.777Z,3.00
2023-01-19T22:21:10.375Z,3.00
2023-01-19T22:23:37.582Z,2.25
2023-01-19T22:26:05.141Z,2.00
2023-01-19T22:28:33.116Z,3.00
2023-01-19T22:31:08.056Z,4.75
2023-01-19T22:33:35.364Z,5.00
2023-01-19T22:36:21.482Z,6.25
2023-01-19T22:38:50.895Z,12.00
2023-01-19T22:41:27.894Z,9.00
2023-01-19T22:43:56.997Z,8.75
2023-01-19T22:46:26.518Z,9.00
2023-01-19T22:48:54.332Z,9.75
2023-01-19T22:51:22.503Z,10.75
2023-01-19T22:53:49.539Z,10.25
2023-01-19T22:56:24.603Z,8.00
2023-01-19T22:58:52.242Z,9.50
2023-01-19T23:01:27.821Z,8.25
2023-01-19T23:03:55.537Z,9.25
2023-01-19T23:06:27.869Z,8.00
2023-01-19T23:08:56.535Z,9.00
2023-01-19T23:11:52.985Z,7.75
2023-01-19T23:14:22.034Z,8.75
2023-01-19T23:16:48.685Z,7.75
2023-01-19T23:19:17.260Z,7.50
2023-01-19T23:21:44.867Z,6.50
2023-01-19T23:24:12.124Z,5.75
2023-01-19T23:26:38.806Z,5.25
2023-01-19T23:29:13.774Z,6.50
2023-01-19T23:31:45.737Z,5.00
2023-01-19T23:34:13.356Z,6.25
2023-01-19T23:36:41.776Z,5.00
2023-01-19T23:39:16.217Z,3.50
2023-01-19T23:41:42.804Z,3.25
2023-01-19T23:44:09.841Z,3.00
2023-01-19T23:46:36.477Z,4.00
2023-01-19T23:49:03.050Z,4.00
2023-01-19T23:51:31.406Z,4.00
2023-01-19T23:53:59.704Z,3.00
2023-01-19T23:56:37.325Z,3.00
2023-01-19T23:59:15.345Z,3.00
